map of CUB home
CUB - Airport
Location
City:  Columbia, South Carolina, United States
Name:Jim Hamilton L B Owens Airport
ICAO:KCUB
IATA:CUB
FAA LID:CUB

Details
Type:Airport (Airfield)
Use:Public/Civil
Latitude:3358'14"N (33.970472)
Longitude:8059'43"W (-80.995249)
Datum:WGS 1984
Elevation:193 ft (59 m)
Variation:7.46W (WMM2015 magnetic declination)
-0.06 annual change
Runways:1
Longest:5011 × 75 ft (1527 × 23 m), paved

Time
Time Zone:UTC-5 (DST-4)
Local Time:

Weather
METAR:KCUB 230953Z AUTO 00000KT 10SM CLR 14/13 A3042 RMK AO2 SLP300 T01390133
TAF:KCUB 230859Z 2309/2406 VRB03KT P6SM SCT008
TEMPO 2310/2313 4SM BR OVC007
FM231400 VRB03KT P6SM SCT015 BKN025
FM231700 21004KT P6SM SCT035

Related Locations
Nearby:
Farthest:MQZ: 11521 mi / 18541 km
Margaret River [Margaret River Airport], WA, AU

Find:

   beyond  
but within

Other Information
Maps:
NOTAMs:
Links:
Sources:

  
flag of United States
flag of South Carolina
flag of Columbia
  

Sectional Chart

Flight Planning
at skyvector.com

Satellite Image

Google Maps Satellite view

 

Copyright © 2004-2018 Karl L. Swartz. All rights reserved.
The Great Circle Mapper name and logo are trademarks of the Great Circle Mapper.
All other trademarks mentioned herein belong to their respective owners.
Please see credits for attibutions and further copyright information.

  Follow gcmap on Facebook Follow gcmap on Twitter Follow gcmap on Google+ GCmap on LinkedIn

hCard Microformat

Geo Microformat